Time;durP1;ratioP1;P1;durP2;ratioP2;P2;SDS_P1;SDS_P2;PMS_P1;PMS_P2;Temp;Humidity;BMP_temperature;BMP_pressure;BME280_temperature;BME280_humidity;BME280_pressure;Samples;Min_cycle;Max_cycle;Signal;HPM_P1;HPM_P2
2022/04/30 00:02:16;;;;;;;;;;;;;;;20.65;29.89;99773.47;4464884;32;32549;-85
2022/04/30 00:04:44;;;;;;;;;;;;;;;20.54;29.63;99775.44;4467298;32;35243;-84
2022/04/30 00:07:13;;;;;;;;;;;;;;;20.15;29.93;99774.31;4466482;32;34158;-85
2022/04/30 00:09:42;;;;;;;;;;;;;;;20.39;29.63;99771.28;4481528;32;33305;-84
2022/04/30 00:12:11;;;;;;;;;;;;;;;20.65;29.18;99775.25;4463156;32;34204;-84
2022/04/30 00:14:39;;;;;;;;;;;;;;;20.65;29.09;99772.63;4480141;32;34551;-84
2022/04/30 00:17:07;;;;;;;;;;;;;;;20.71;29.08;99768.97;4466658;32;34170;-84
2022/04/30 00:19:35;;;;;;;;;;;;;;;20.62;29.17;99770.03;4442036;32;33837;-84
2022/04/30 00:22:03;;;;;;;;;;;;;;;20.70;28.83;99768.12;4471063;32;34288;-84
2022/04/30 00:24:30;;;;;;;;;;;;;;;20.69;28.98;99763.75;4474323;32;34501;-85
2022/04/30 00:27:01;;;;;;;;;;;;;;;20.64;29.03;99766.44;4474614;32;34952;-84
2022/04/30 00:29:29;;;;;;;;;;;;;;;20.45;29.31;99774.69;4469763;32;34290;-85
2022/04/30 00:31:57;;;;;;;;;;;;;;;20.40;29.51;99767.75;4481229;32;33824;-84
2022/04/30 00:34:24;;;;;;;;;;;;;;;20.46;29.46;99765.91;4479227;32;34138;-85
2022/04/30 00:36:52;;;;;;;;;;;;;;;20.36;29.44;99768.69;4481092;32;35050;-85
2022/04/30 00:39:19;;;;;;;;;;;;;;;20.14;29.90;99776.09;4464382;32;34247;-85
2022/04/30 00:41:47;;;;;;;;;;;;;;;20.20;29.58;99772.50;4483471;32;35157;-85
2022/04/30 00:44:18;;;;;;;;;;;;;;;20.42;29.13;99765.97;4469234;32;34068;-85
2022/04/30 00:46:45;;;;;;;;;;;;;;;20.32;29.39;99767.00;4469006;32;32887;-85
2022/04/30 00:49:13;;;;;;;;;;;;;;;20.10;29.71;99769.12;4478326;32;33240;-85
2022/04/30 00:51:41;;;;;;;;;;;;;;;20.14;29.58;99769.94;4479651;32;34094;-85
2022/04/30 00:54:08;;;;;;;;;;;;;;;19.93;29.79;99774.69;4474986;32;34156;-85
2022/04/30 00:56:43;;;;;;;;;;;;;;;19.87;29.93;99771.25;4470518;32;33809;-84
2022/04/30 00:59:13;;;;;;;;;;;;;;;19.88;29.92;99776.50;4480187;32;33446;-85
2022/04/30 01:01:40;;;;;;;;;;;;;;;19.84;29.95;99771.31;4475208;32;34019;-85
2022/04/30 01:04:11;;;;;;;;;;;;;;;19.74;30.04;99775.84;4481756;32;34285;-85
2022/04/30 01:06:50;;;;;;;;;;;;;;;19.39;31.07;99778.94;4460978;32;34723;-85
2022/04/30 01:09:21;;;;;;;;;;;;;;;19.57;30.41;99778.69;4472423;32;32918;-85
2022/04/30 01:11:49;;;;;;;;;;;;;;;19.42;30.28;99782.38;4468725;32;34120;-85
2022/04/30 01:14:16;;;;;;;;;;;;;;;19.56;30.29;99771.69;4465375;32;35166;-85
2022/04/30 01:16:44;;;;;;;;;;;;;;;19.58;30.32;99769.88;4465859;32;34075;-85
2022/04/30 01:19:14;;;;;;;;;;;;;;;18.92;31.69;99777.78;4455082;32;34221;-85
2022/04/30 01:21:42;;;;;;;;;;;;;;;19.18;31.35;99769.56;4450708;32;33816;-85
2022/04/30 01:24:09;;;;;;;;;;;;;;;19.22;31.37;99766.00;4446381;32;33975;-85
2022/04/30 01:26:36;;;;;;;;;;;;;;;19.22;30.96;99763.38;4450591;32;34088;-85
2022/04/30 01:29:04;;;;;;;;;;;;;;;19.53;31.00;99768.22;4452378;32;33982;-83
2022/04/30 01:37:22;;;;;;;;;;;;;;;19.43;30.73;99765.75;4452166;32;33892;-84
2022/04/30 01:37:25;;;;;;;;;;;;;;;19.33;30.85;99763.25;4451254;32;34231;-83
2022/04/30 01:39:59;;;;;;;;;;;;;;;19.41;31.17;99770.13;4451816;32;32823;-85
2022/04/30 01:42:29;;;;;;;;;;;;;;;19.42;31.26;99763.13;4450676;32;33446;-85
2022/04/30 01:44:59;;;;;;;;;;;;;;;19.15;31.54;99762.59;4457158;32;34215;-84
2022/04/30 01:47:27;;;;;;;;;;;;;;;19.32;31.18;99757.13;4460107;32;33560;-85
2022/04/30 01:49:54;;;;;;;;;;;;;;;19.47;31.16;99748.13;4462531;32;33053;-85
2022/04/30 01:52:21;;;;;;;;;;;;;;;19.36;31.42;99750.94;4452086;32;34186;-85
2022/04/30 01:54:49;;;;;;;;;;;;;;;19.39;31.40;99742.97;4455753;32;34862;-84
2022/04/30 01:57:23;;;;;;;;;;;;;;;19.34;32.04;99744.81;4451520;32;33636;-85
2022/04/30 01:59:53;;;;;;;;;;;;;;;19.14;32.06;99744.22;4451921;32;33184;-84
2022/04/30 02:02:27;;;;;;;;;;;;;;;18.93;32.52;99738.31;4452562;32;34723;-85
2022/04/30 02:04:55;;;;;;;;;;;;;;;19.39;31.83;99739.47;4452523;32;34146;-85
2022/04/30 02:07:24;;;;;;;;;;;;;;;19.12;32.53;99744.22;4452169;32;34092;-83
2022/04/30 02:09:51;;;;;;;;;;;;;;;18.96;32.98;99738.28;4445661;32;33138;-84
2022/04/30 02:12:18;;;;;;;;;;;;;;;18.98;32.71;99734.75;4450641;32;33837;-85
2022/04/30 02:14:51;;;;;;;;;;;;;;;19.06;32.66;99740.81;4451215;32;34190;-85
2022/04/30 02:17:19;;;;;;;;;;;;;;;19.19;32.57;99734.50;4466440;32;34306;-84
2022/04/30 02:22:38;;;;;;;;;;;;;;;19.11;32.33;99731.97;4470609;32;34545;-83
2022/04/30 02:25:09;;;;;;;;;;;;;;;19.11;32.80;99725.84;4482890;32;34001;-84
2022/04/30 02:27:38;;;;;;;;;;;;;;;19.03;32.82;99732.97;4483449;32;33742;-85
2022/04/30 02:30:06;;;;;;;;;;;;;;;19.02;32.54;99734.75;4462427;32;34287;-85
2022/04/30 02:32:44;;;;;;;;;;;;;;;19.12;32.61;99732.84;4462927;32;33965;-85
2022/04/30 02:35:14;;;;;;;;;;;;;;;18.94;32.96;99733.94;4464115;32;33980;-85
2022/04/30 02:37:44;;;;;;;;;;;;;;;19.44;31.93;99729.78;4466640;32;33693;-85
2022/04/30 02:40:12;;;;;;;;;;;;;;;19.19;31.84;99730.12;4465735;32;34508;-85
2022/04/30 02:42:44;;;;;;;;;;;;;;;19.07;32.25;99726.78;4483067;32;33857;-84
2022/04/30 02:45:11;;;;;;;;;;;;;;;19.20;32.15;99731.84;4482249;32;34217;-84
2022/04/30 02:47:39;;;;;;;;;;;;;;;19.19;31.96;99724.00;4468503;32;34321;-84
2022/04/30 02:50:07;;;;;;;;;;;;;;;19.22;31.98;99723.97;4479150;32;33316;-83
2022/04/30 02:52:35;;;;;;;;;;;;;;;19.13;32.25;99717.06;4468250;32;34276;-84
2022/04/30 02:55:03;;;;;;;;;;;;;;;19.10;32.27;99721.50;4482437;32;34081;-84
2022/04/30 02:57:38;;;;;;;;;;;;;;;18.86;32.51;99710.38;4480745;32;34154;-85
2022/04/30 03:00:06;;;;;;;;;;;;;;;18.66;33.00;99707.97;4455412;32;33890;-85
2022/04/30 03:02:37;;;;;;;;;;;;;;;18.79;32.87;99707.84;4469279;32;32704;-84
2022/04/30 03:05:06;;;;;;;;;;;;;;;18.96;32.76;99703.28;4480488;32;34140;-85
2022/04/30 03:07:37;;;;;;;;;;;;;;;18.78;32.83;99709.59;4478446;32;33919;-85
2022/04/30 03:10:05;;;;;;;;;;;;;;;18.89;33.15;99706.84;4482293;32;33181;-85
2022/04/30 03:12:32;;;;;;;;;;;;;;;18.81;33.32;99709.59;4482696;32;33911;-85
2022/04/30 03:15:00;;;;;;;;;;;;;;;19.00;33.04;99710.22;4482148;32;34057;-85
2022/04/30 03:23:10;;;;;;;;;;;;;;;18.77;33.21;99715.75;4442599;32;35038;-85
2022/04/30 03:25:37;;;;;;;;;;;;;;;18.54;33.90;99713.38;4479250;32;34492;-83
2022/04/30 03:28:04;;;;;;;;;;;;;;;18.68;33.71;99714.09;4482352;32;34950;-84
2022/04/30 03:30:32;;;;;;;;;;;;;;;18.90;33.18;99712.13;4477305;32;33023;-85
2022/04/30 03:32:59;;;;;;;;;;;;;;;19.06;33.21;99717.16;4481726;32;35052;-85
2022/04/30 03:35:26;;;;;;;;;;;;;;;18.87;33.46;99712.16;4481074;32;34225;-84
2022/04/30 03:37:54;;;;;;;;;;;;;;;19.00;33.09;99715.47;4481208;32;35017;-84
2022/04/30 03:40:22;;;;;;;;;;;;;;;18.68;33.55;99721.97;4464550;32;33479;-85
2022/04/30 03:42:49;;;;;;;;;;;;;;;18.61;33.58;99728.16;4476519;32;34159;-84
2022/04/30 03:45:17;;;;;;;;;;;;;;;18.99;33.38;99713.75;4481303;32;34082;-84
2022/04/30 03:47:44;;;;;;;;;;;;;;;18.90;33.21;99722.62;4481194;32;34121;-85
2022/04/30 03:50:11;;;;;;;;;;;;;;;18.78;33.55;99717.50;4479359;32;33013;-84
2022/04/30 03:52:39;;;;;;;;;;;;;;;18.93;33.31;99722.56;4481580;32;33735;-83
2022/04/30 03:55:07;;;;;;;;;;;;;;;19.06;33.19;99722.44;4481300;32;34004;-84
2022/04/30 03:57:34;;;;;;;;;;;;;;;19.14;32.42;99715.31;4481936;32;34070;-85
2022/04/30 04:00:04;;;;;;;;;;;;;;;18.86;33.79;99718.25;4461071;32;33586;-85
2022/04/30 04:02:42;;;;;;;;;;;;;;;18.88;33.25;99720.91;4467685;32;33916;-84
2022/04/30 04:05:12;;;;;;;;;;;;;;;18.89;32.35;99714.75;4480481;32;34899;-85
2022/04/30 04:07:39;;;;;;;;;;;;;;;18.74;32.84;99718.41;4459357;32;34881;-85
2022/04/30 04:10:07;;;;;;;;;;;;;;;18.92;32.15;99709.47;4476496;32;33587;-84
2022/04/30 04:12:34;;;;;;;;;;;;;;;19.45;31.74;99718.37;4467073;32;34262;-84
2022/04/30 04:17:48;;;;;;;;;;;;;;;19.54;31.22;99722.62;4471291;32;33964;-84
2022/04/30 04:20:18;;;;;;;;;;;;;;;18.40;32.54;99729.25;4483074;32;34116;-85
2022/04/30 04:22:52;;;;;;;;;;;;;;;18.93;32.26;99730.44;4483739;32;35188;-84
2022/04/30 04:28:06;;;;;;;;;;;;;;;20.45;30.92;99722.00;4460611;32;34135;-85
2022/04/30 04:30:33;;;;;;;;;;;;;;;20.16;29.75;99724.28;4482573;32;33436;-85
2022/04/30 04:33:01;;;;;;;;;;;;;;;21.09;28.94;99720.75;4480263;32;34318;-83
2022/04/30 04:35:28;;;;;;;;;;;;;;;20.47;29.11;99721.09;4470912;32;34264;-84
2022/04/30 04:37:55;;;;;;;;;;;;;;;21.01;29.49;99730.59;4474773;32;33895;-85
2022/04/30 04:40:22;;;;;;;;;;;;;;;21.49;28.46;99720.81;4461991;32;34070;-85
2022/04/30 04:42:50;;;;;;;;;;;;;;;20.90;28.61;99726.41;4472317;32;33921;-84
2022/04/30 04:45:17;;;;;;;;;;;;;;;20.07;29.24;99726.19;4469386;32;34181;-84
2022/04/30 04:47:49;;;;;;;;;;;;;;;20.84;28.04;99728.34;4479144;32;34789;-84
2022/04/30 04:50:17;;;;;;;;;;;;;;;21.08;27.94;99721.69;4475929;32;32982;-85
2022/04/30 04:52:45;;;;;;;;;;;;;;;21.97;27.35;99730.22;4469490;32;34865;-84
2022/04/30 04:55:12;;;;;;;;;;;;;;;21.73;27.15;99724.63;4479330;32;34256;-85
2022/04/30 04:57:40;;;;;;;;;;;;;;;21.95;26.82;99727.63;4464510;32;34497;-85
2022/04/30 05:00:08;;;;;;;;;;;;;;;21.67;26.57;99729.16;4481434;32;33212;-84
2022/04/30 05:02:35;;;;;;;;;;;;;;;21.54;27.08;99728.59;4483473;32;33210;-84
2022/04/30 05:05:03;;;;;;;;;;;;;;;21.09;28.06;99732.19;4469388;32;34436;-84
2022/04/30 05:07:30;;;;;;;;;;;;;;;21.89;27.26;99729.53;4467440;32;33717;-84
2022/04/30 05:09:58;;;;;;;;;;;;;;;21.87;27.18;99732.22;4480012;32;32746;-84
2022/04/30 05:12:25;;;;;;;;;;;;;;;21.23;28.32;99726.63;4469604;32;35070;-84
2022/04/30 05:14:53;;;;;;;;;;;;;;;21.21;27.47;99733.69;4483632;32;33996;-83
2022/04/30 05:17:21;;;;;;;;;;;;;;;20.97;28.04;99734.22;4482165;32;35276;-83
2022/04/30 05:19:51;;;;;;;;;;;;;;;21.63;27.67;99733.69;4481524;32;33642;-84
2022/04/30 05:22:18;;;;;;;;;;;;;;;21.42;27.88;99736.81;4482800;32;34086;-84
2022/04/30 05:24:45;;;;;;;;;;;;;;;21.29;27.57;99739.69;4482503;32;33995;-84
2022/04/30 05:27:13;;;;;;;;;;;;;;;21.09;28.50;99732.19;4482491;32;33896;-84
2022/04/30 05:29:41;;;;;;;;;;;;;;;20.93;28.70;99735.19;4478480;32;34088;-85
2022/04/30 05:32:08;;;;;;;;;;;;;;;20.96;28.65;99735.97;4483404;32;34010;-84
2022/04/30 05:34:36;;;;;;;;;;;;;;;21.76;27.15;99736.88;4483593;32;34231;-84
2022/04/30 05:37:03;;;;;;;;;;;;;;;20.94;28.19;99737.75;4483450;32;34705;-84
2022/04/30 05:39:30;;;;;;;;;;;;;;;20.98;28.49;99735.94;4479607;32;35533;-85
2022/04/30 05:41:58;;;;;;;;;;;;;;;20.20;29.91;99738.28;4482448;32;34274;-83
2022/04/30 05:44:25;;;;;;;;;;;;;;;20.17;29.40;99738.31;4479631;32;34166;-85
2022/04/30 05:46:52;;;;;;;;;;;;;;;20.38;29.94;99743.22;4483590;32;34053;-84
2022/04/30 05:49:19;;;;;;;;;;;;;;;21.24;29.14;99735.41;4483157;32;33621;-84
2022/04/30 05:51:47;;;;;;;;;;;;;;;21.02;29.15;99740.25;4481125;32;34000;-84
2022/04/30 05:54:14;;;;;;;;;;;;;;;20.84;29.09;99742.37;4469006;32;33934;-84
2022/04/30 05:56:41;;;;;;;;;;;;;;;20.11;29.28;99744.53;4483135;32;34223;-84
2022/04/30 05:59:09;;;;;;;;;;;;;;;20.39;30.21;99744.94;4481928;32;33415;-83
2022/04/30 06:01:36;;;;;;;;;;;;;;;20.62;29.95;99747.19;4479445;32;34905;-84
2022/04/30 06:04:04;;;;;;;;;;;;;;;20.14;31.22;99741.84;4483268;32;34355;-82
2022/04/30 06:06:31;;;;;;;;;;;;;;;21.08;28.96;99741.00;4482365;32;34605;-84
2022/04/30 06:08:58;;;;;;;;;;;;;;;20.32;30.13;99745.09;4464075;32;33241;-84
2022/04/30 06:11:26;;;;;;;;;;;;;;;20.45;30.23;99751.00;4471686;32;34836;-83
2022/04/30 06:13:53;;;;;;;;;;;;;;;20.12;30.49;99745.44;4477402;32;35314;-82
2022/04/30 06:16:20;;;;;;;;;;;;;;;20.08;30.81;99749.87;4479627;32;34330;-83
2022/04/30 06:18:48;;;;;;;;;;;;;;;19.53;30.90;99740.16;4477235;32;33400;-84
2022/04/30 06:21:35;;;;;;;;;;;;;;;19.96;30.96;99749.19;4481991;32;33754;-83
2022/04/30 06:24:02;;;;;;;;;;;;;;;19.44;31.38;99749.06;4465706;32;34205;-85
2022/04/30 06:26:33;;;;;;;;;;;;;;;19.86;30.89;99746.72;4482287;32;34056;-83
2022/04/30 06:29:00;;;;;;;;;;;;;;;19.51;31.52;99749.84;4480416;32;34276;-83
2022/04/30 06:31:28;;;;;;;;;;;;;;;20.06;30.72;99754.28;4480981;32;33785;-83
2022/04/30 06:33:56;;;;;;;;;;;;;;;19.69;30.96;99751.34;4481637;32;34056;-84
2022/04/30 06:36:23;;;;;;;;;;;;;;;20.22;31.11;99747.00;4480041;32;34247;-84
2022/04/30 06:38:51;;;;;;;;;;;;;;;20.49;30.46;99750.03;4477825;32;33145;-84
2022/04/30 06:41:21;;;;;;;;;;;;;;;21.40;29.30;99757.06;4473719;32;33735;-85
2022/04/30 06:43:50;;;;;;;;;;;;;;;22.43;28.59;99747.59;4482791;32;34118;-83
2022/04/30 06:46:17;;;;;;;;;;;;;;;21.26;29.26;99745.03;4482411;32;34888;-84
2022/04/30 06:48:44;;;;;;;;;;;;;;;20.86;29.62;99744.97;4480191;32;34114;-84
2022/04/30 06:51:12;;;;;;;;;;;;;;;20.92;29.46;99750.13;4480334;32;33768;-83
2022/04/30 06:59:12;;;;;;;;;;;;;;;20.98;29.11;99744.72;4474869;32;33013;-82
2022/04/30 07:02:41;;;;;;;;;;;;;;;21.35;28.97;99744.84;4464328;32;33851;-83
2022/04/30 07:04:38;;;;;;;;;;;;;;;22.08;29.05;99749.28;4448214;32;33922;-83
2022/04/30 07:07:06;;;;;;;;;;;;;;;21.94;28.81;99749.66;4477542;32;34111;-84
2022/04/30 07:09:33;;;;;;;;;;;;;;;21.62;28.47;99734.56;4474092;32;33433;-84
2022/04/30 07:12:04;;;;;;;;;;;;;;;20.88;29.59;99740.53;4481165;32;34541;-83
2022/04/30 07:14:32;;;;;;;;;;;;;;;21.12;30.05;99741.81;4466495;32;34357;-84
2022/04/30 07:16:59;;;;;;;;;;;;;;;20.34;30.91;99744.16;4466922;32;34854;-83
2022/04/30 07:19:26;;;;;;;;;;;;;;;20.25;31.02;99746.06;4473878;32;33498;-84
2022/04/30 07:21:54;;;;;;;;;;;;;;;21.25;30.24;99729.22;4482572;32;33367;-84
2022/04/30 07:24:21;;;;;;;;;;;;;;;20.82;30.30;99736.25;4478761;32;32559;-84
2022/04/30 07:26:48;;;;;;;;;;;;;;;21.26;31.11;99733.59;4481841;32;34004;-84
2022/04/30 07:29:16;;;;;;;;;;;;;;;21.71;29.95;99730.88;4481942;32;33209;-86
2022/04/30 07:31:44;;;;;;;;;;;;;;;21.82;30.47;99737.62;4482532;32;33746;-84
2022/04/30 07:34:13;;;;;;;;;;;;;;;21.69;29.74;99732.66;4482429;32;34196;-86
2022/04/30 07:36:41;;;;;;;;;;;;;;;21.45;29.94;99723.56;4482067;32;34813;-86
2022/04/30 07:39:08;;;;;;;;;;;;;;;22.78;28.98;99730.75;4482004;32;34235;-88
2022/04/30 07:41:37;;;;;;;;;;;;;;;21.67;29.54;99726.53;4482216;32;35541;-84
2022/04/30 07:44:04;;;;;;;;;;;;;;;21.11;30.39;99726.87;4452165;32;34378;-86
2022/04/30 07:46:31;;;;;;;;;;;;;;;21.70;30.58;99729.97;4466732;32;34680;-86
2022/04/30 07:49:00;;;;;;;;;;;;;;;22.42;30.25;99732.63;4473088;32;33119;-86
2022/04/30 07:51:42;;;;;;;;;;;;;;;22.23;29.01;99732.22;4484192;32;33952;-86
2022/04/30 07:54:10;;;;;;;;;;;;;;;23.22;29.33;99728.59;4472217;32;34173;-85
2022/04/30 07:56:39;;;;;;;;;;;;;;;23.68;27.77;99719.31;4484070;32;34026;-85
2022/04/30 07:59:06;;;;;;;;;;;;;;;23.03;28.13;99718.59;4483113;32;33207;-85
2022/04/30 08:01:33;;;;;;;;;;;;;;;22.21;28.97;99732.28;4483922;32;34388;-85
2022/04/30 08:04:01;;;;;;;;;;;;;;;23.33;28.33;99721.22;4483898;32;34424;-85
2022/04/30 08:06:28;;;;;;;;;;;;;;;23.62;27.72;99717.66;4483519;32;34975;-85
2022/04/30 08:08:55;;;;;;;;;;;;;;;23.77;27.25;99722.50;4483894;32;33587;-85
2022/04/30 08:11:23;;;;;;;;;;;;;;;22.70;28.36;99716.88;4484027;32;35271;-85
2022/04/30 08:13:50;;;;;;;;;;;;;;;23.47;27.66;99720.81;4483927;32;34309;-86
2022/04/30 08:16:17;;;;;;;;;;;;;;;23.18;29.37;99722.53;4483201;32;34838;-86
2022/04/30 08:18:45;;;;;;;;;;;;;;;22.27;28.93;99732.09;4483761;32;33366;-85
2022/04/30 08:21:12;;;;;;;;;;;;;;;23.00;28.54;99723.97;4483126;32;33972;-83
2022/04/30 08:23:40;;;;;;;;;;;;;;;22.87;27.44;99726.97;4469839;32;33960;-84
2022/04/30 08:26:07;;;;;;;;;;;;;;;23.67;26.58;99721.06;4479540;32;33695;-85
2022/04/30 08:28:34;;;;;;;;;;;;;;;24.31;26.45;99722.50;4476751;32;34131;-86
2022/04/30 08:31:02;;;;;;;;;;;;;;;24.24;26.58;99720.06;4475470;32;34214;-86
2022/04/30 08:33:29;;;;;;;;;;;;;;;24.18;26.56;99717.63;4479219;32;33951;-85
2022/04/30 08:35:56;;;;;;;;;;;;;;;23.81;28.17;99720.63;4469375;32;34137;-82
2022/04/30 08:38:24;;;;;;;;;;;;;;;23.90;26.04;99709.72;4484366;32;34053;-82
2022/04/30 08:40:51;;;;;;;;;;;;;;;24.37;26.38;99722.28;4483986;32;34246;-83
2022/04/30 08:43:19;;;;;;;;;;;;;;;22.95;25.43;99725.00;4472394;32;34213;-83
2022/04/30 08:45:46;;;;;;;;;;;;;;;22.48;26.16;99728.03;4474836;32;33966;-83
2022/04/30 08:48:15;;;;;;;;;;;;;;;22.74;25.50;99715.91;4459903;32;33419;-83
2022/04/30 08:50:43;;;;;;;;;;;;;;;23.31;25.70;99718.63;4467214;32;34212;-85
2022/04/30 08:53:10;;;;;;;;;;;;;;;23.49;26.04;99714.56;4475023;32;34941;-83
2022/04/30 08:55:38;;;;;;;;;;;;;;;23.23;25.52;99711.84;4474209;32;34184;-84
2022/04/30 08:58:05;;;;;;;;;;;;;;;24.35;24.99;99714.38;4473916;32;34412;-84
2022/04/30 09:00:39;;;;;;;;;;;;;;;23.62;24.69;99707.09;4472665;32;34228;-84
2022/04/30 09:03:06;;;;;;;;;;;;;;;23.64;24.62;99705.28;4461766;32;34223;-84
2022/04/30 09:05:35;;;;;;;;;;;;;;;24.25;23.16;99699.75;4482739;32;33952;-84
2022/04/30 09:08:02;;;;;;;;;;;;;;;24.94;24.09;99699.94;4471322;32;34098;-85
2022/04/30 09:10:30;;;;;;;;;;;;;;;24.64;23.63;99692.19;4461255;32;34599;-83
2022/04/30 09:13:04;;;;;;;;;;;;;;;25.00;22.86;99694.38;4481794;32;35176;-83
2022/04/30 09:15:31;;;;;;;;;;;;;;;24.09;24.07;99695.87;4478329;32;33845;-83
2022/04/30 09:17:59;;;;;;;;;;;;;;;23.98;23.67;99690.94;4481163;32;34344;-84
2022/04/30 09:20:26;;;;;;;;;;;;;;;23.53;23.15;99680.94;4453944;32;33570;-83
2022/04/30 09:22:54;;;;;;;;;;;;;;;23.95;23.94;99683.13;4468160;32;35169;-83
2022/04/30 09:25:21;;;;;;;;;;;;;;;23.47;24.40;99689.91;4468164;32;34276;-84
2022/04/30 09:28:05;;;;;;;;;;;;;;;24.15;24.78;99687.72;4477183;32;33197;-85
2022/04/30 09:30:32;;;;;;;;;;;;;;;24.25;23.21;99682.06;4466100;32;34279;-83
2022/04/30 09:33:01;;;;;;;;;;;;;;;23.66;23.38;99670.78;4474115;32;34385;-84
2022/04/30 09:38:15;;;;;;;;;;;;;;;24.48;22.81;99669.81;4467890;32;33209;-82
2022/04/30 09:41:00;;;;;;;;;;;;;;;23.90;23.96;99671.78;4468569;32;34841;-82
2022/04/30 09:43:28;;;;;;;;;;;;;;;24.39;23.80;99672.78;4478109;32;34936;-81
2022/04/30 09:46:06;;;;;;;;;;;;;;;25.12;23.77;99664.78;4454700;32;34566;-81
2022/04/30 09:54:07;;;;;;;;;;;;;;;24.75;23.39;99658.19;4468865;32;34133;-81
2022/04/30 09:56:38;;;;;;;;;;;;;;;24.53;22.28;99646.62;4474689;32;34387;-83
2022/04/30 09:59:10;;;;;;;;;;;;;;;25.59;21.40;99654.03;4483833;32;32981;-80
2022/04/30 10:01:44;;;;;;;;;;;;;;;24.47;22.11;99650.41;4464838;32;34812;-85
2022/04/30 10:04:12;;;;;;;;;;;;;;;25.43;22.94;99653.81;4466787;32;34436;-83
2022/04/30 10:06:48;;;;;;;;;;;;;;;24.62;23.58;99648.94;4469161;32;34328;-84
2022/04/30 10:09:18;;;;;;;;;;;;;;;25.32;22.89;99647.19;4483640;32;33376;-85
2022/04/30 10:11:45;;;;;;;;;;;;;;;24.98;22.69;99637.88;4466628;32;34907;-85
2022/04/30 10:14:15;;;;;;;;;;;;;;;24.06;22.56;99646.53;4472727;32;33968;-81
2022/04/30 10:16:59;;;;;;;;;;;;;;;24.36;22.34;99631.34;4483505;32;34085;-82
2022/04/30 10:19:27;;;;;;;;;;;;;;;24.63;22.78;99640.09;4475160;32;33468;-82
2022/04/30 10:22:13;;;;;;;;;;;;;;;24.33;21.61;99639.38;4481850;32;35127;-85
2022/04/30 10:24:44;;;;;;;;;;;;;;;24.69;21.87;99634.53;4463991;32;34234;-85
2022/04/30 10:27:12;;;;;;;;;;;;;;;24.99;21.53;99626.34;4477489;32;34293;-84
2022/04/30 10:29:53;;;;;;;;;;;;;;;24.39;22.29;99628.56;4468030;32;32952;-82
2022/04/30 10:32:30;;;;;;;;;;;;;;;24.58;22.11;99630.56;4469405;32;33952;-81
2022/04/30 10:34:59;;;;;;;;;;;;;;;24.77;22.46;99628.94;4481212;32;34253;-81
2022/04/30 10:37:34;;;;;;;;;;;;;;;25.34;21.38;99622.31;4459526;32;35286;-83
2022/04/30 10:40:06;;;;;;;;;;;;;;;25.25;21.29;99625.34;4475017;32;33554;-83
2022/04/30 10:42:40;;;;;;;;;;;;;;;25.54;21.08;99629.47;4467479;32;34275;-82
2022/04/30 10:45:16;;;;;;;;;;;;;;;24.78;21.43;99619.22;4470235;32;34790;-84
2022/04/30 10:47:58;;;;;;;;;;;;;;;23.74;22.16;99624.66;4459626;32;34172;-82
2022/04/30 10:50:25;;;;;;;;;;;;;;;25.22;21.38;99614.84;4471758;32;33315;-81
2022/04/30 10:52:54;;;;;;;;;;;;;;;25.06;22.46;99614.56;4481472;32;34012;-82
2022/04/30 10:55:22;;;;;;;;;;;;;;;24.95;21.43;99614.13;4480418;32;35340;-84
2022/04/30 10:57:49;;;;;;;;;;;;;;;25.16;20.79;99605.34;4476488;32;34346;-83
2022/04/30 11:00:17;;;;;;;;;;;;;;;25.58;20.33;99599.22;4464372;32;33214;-84
2022/04/30 11:02:48;;;;;;;;;;;;;;;26.10;21.72;99606.75;4478138;32;35027;-83
2022/04/30 11:05:24;;;;;;;;;;;;;;;24.86;20.07;99604.75;4479778;32;34081;-83
2022/04/30 11:07:52;;;;;;;;;;;;;;;25.22;20.03;99602.44;4469430;32;34086;-82
2022/04/30 11:10:19;;;;;;;;;;;;;;;24.95;19.91;99599.06;4483086;32;33199;-84
2022/04/30 11:12:46;;;;;;;;;;;;;;;24.64;19.43;99594.09;4480021;32;33282;-84
2022/04/30 11:15:14;;;;;;;;;;;;;;;24.58;21.09;99598.75;4473855;32;34313;-85
2022/04/30 11:17:43;;;;;;;;;;;;;;;25.65;17.98;99590.06;4455346;32;34821;-85
2022/04/30 11:20:21;;;;;;;;;;;;;;;25.56;19.11;99594.88;4482917;32;32905;-84
2022/04/30 11:22:52;;;;;;;;;;;;;;;24.85;20.05;99587.09;4483852;32;34647;-84
2022/04/30 11:25:19;;;;;;;;;;;;;;;25.46;20.40;99587.31;4467953;32;35123;-85
2022/04/30 11:27:46;;;;;;;;;;;;;;;24.37;21.00;99589.78;4467405;32;32873;-85
2022/04/30 11:30:14;;;;;;;;;;;;;;;24.12;21.64;99587.16;4482990;32;32956;-85
2022/04/30 11:32:46;;;;;;;;;;;;;;;24.80;20.93;99582.87;4482230;32;33904;-85
2022/04/30 11:35:16;;;;;;;;;;;;;;;24.87;21.05;99584.38;4482144;32;35303;-84
2022/04/30 11:37:43;;;;;;;;;;;;;;;25.54;20.07;99583.47;4479874;32;34991;-83
2022/04/30 11:40:12;;;;;;;;;;;;;;;24.78;20.55;99574.16;4466990;32;34101;-84
2022/04/30 11:42:39;;;;;;;;;;;;;;;25.83;20.12;99567.19;4476019;32;34247;-85
2022/04/30 11:45:07;;;;;;;;;;;;;;;26.51;19.81;99557.06;4477673;32;34479;-84
2022/04/30 11:47:34;;;;;;;;;;;;;;;26.75;19.54;99556.88;4467818;32;33975;-82
2022/04/30 11:50:11;;;;;;;;;;;;;;;25.79;18.63;99554.09;4452973;32;33405;-85
2022/04/30 11:52:39;;;;;;;;;;;;;;;25.89;21.17;99560.75;4452834;32;34029;-82
2022/04/30 11:55:06;;;;;;;;;;;;;;;25.45;20.12;99566.13;4454627;32;33828;-83
2022/04/30 11:57:34;;;;;;;;;;;;;;;25.46;18.33;99550.16;4476365;32;34159;-84
2022/04/30 12:00:02;;;;;;;;;;;;;;;26.89;18.86;99546.41;4474833;32;34207;-85
2022/04/30 12:02:39;;;;;;;;;;;;;;;26.65;18.71;99536.03;4462010;32;35000;-83
2022/04/30 12:05:09;;;;;;;;;;;;;;;26.39;18.60;99531.03;4466993;32;33617;-82
2022/04/30 12:07:39;;;;;;;;;;;;;;;25.67;18.62;99529.78;4439233;32;783381;-83
2022/04/30 12:10:16;;;;;;;;;;;;;;;26.88;19.02;99531.41;4474097;32;34270;-83
2022/04/30 12:12:43;;;;;;;;;;;;;;;27.14;17.50;99531.03;4468964;32;34878;-84
2022/04/30 12:15:19;;;;;;;;;;;;;;;27.06;18.50;99524.34;4467875;32;34009;-82
2022/04/30 12:24:40;;;;;;;;;;;;;;;26.40;17.82;99532.75;4462154;32;35007;-84
2022/04/30 12:26:13;;;;;;;;;;;;;;;26.15;17.98;99523.25;4464040;32;34157;-83
2022/04/30 12:28:42;;;;;;;;;;;;;;;26.17;19.52;99525.84;4469969;32;33976;-84
2022/04/30 12:31:10;;;;;;;;;;;;;;;25.43;19.15;99530.84;4480008;32;34313;-82
2022/04/30 12:33:45;;;;;;;;;;;;;;;25.55;19.28;99524.12;4472584;32;34888;-84
2022/04/30 12:36:13;;;;;;;;;;;;;;;26.12;20.04;99518.06;4467040;32;34116;-83
2022/04/30 12:38:50;;;;;;;;;;;;;;;26.48;18.84;99511.16;4475019;32;33803;-82
2022/04/30 12:41:18;;;;;;;;;;;;;;;25.88;19.47;99516.53;4467932;32;33829;-84
2022/04/30 12:43:45;;;;;;;;;;;;;;;25.34;19.83;99525.91;4480816;32;33885;-85
2022/04/30 12:46:18;;;;;;;;;;;;;;;25.60;19.34;99512.38;4477700;32;34190;-84
2022/04/30 12:48:46;;;;;;;;;;;;;;;26.50;19.80;99509.28;4480585;32;33850;-83
2022/04/30 12:51:14;;;;;;;;;;;;;;;26.28;18.64;99506.75;4483705;32;34033;-83
2022/04/30 12:53:42;;;;;;;;;;;;;;;25.62;19.00;99507.88;4478054;32;35289;-81
2022/04/30 12:56:09;;;;;;;;;;;;;;;25.57;19.27;99501.91;4483889;32;34506;-81
2022/04/30 12:58:37;;;;;;;;;;;;;;;25.96;18.30;99503.75;4481284;32;35098;-83
2022/04/30 13:01:04;;;;;;;;;;;;;;;26.13;18.81;99495.00;4467874;32;33395;-82
2022/04/30 13:03:31;;;;;;;;;;;;;;;25.89;19.60;99497.00;4482665;32;34092;-81
2022/04/30 13:05:59;;;;;;;;;;;;;;;24.89;19.38;99502.94;4470009;32;35279;-82
2022/04/30 13:13:30;;;;;;;;;;;;;;;25.03;19.93;99497.09;4467869;32;35703;-82
2022/04/30 13:13:59;;;;;;;;;;;;;;;26.02;19.13;99492.00;4468061;32;34048;-82
2022/04/30 13:16:27;;;;;;;;;;;;;;;26.65;19.88;99485.50;4466773;32;35322;-81
2022/04/30 13:18:56;;;;;;;;;;;;;;;26.18;18.89;99482.41;4467420;32;33680;-82
2022/04/30 13:21:23;;;;;;;;;;;;;;;25.31;19.44;99486.25;4468066;32;33336;-81
2022/04/30 13:23:50;;;;;;;;;;;;;;;25.93;18.98;99478.19;4468325;32;34627;-81
2022/04/30 13:26:20;;;;;;;;;;;;;;;26.30;21.33;99480.97;4468270;32;34592;-81
2022/04/30 13:28:48;;;;;;;;;;;;;;;26.43;17.93;99476.78;4467759;32;34763;-82
2022/04/30 13:31:15;;;;;;;;;;;;;;;26.11;18.42;99468.53;4466706;32;33909;-83
2022/04/30 13:33:43;;;;;;;;;;;;;;;26.50;18.91;99462.28;4467851;32;35151;-83
2022/04/30 13:36:10;;;;;;;;;;;;;;;25.66;19.51;99466.13;4467691;32;34421;-83
2022/04/30 13:38:38;;;;;;;;;;;;;;;24.95;19.65;99473.53;4466723;32;34633;-82